Martinez, CA (94553)

6:13 PM PST on February 08, 2016 (GMT -0800)
APRSWXNET | | Change Station
CLOSE
Current Station
Personal Weather Station
Location: Martinez, CA
Elevation: 738 ft
Nearby Weather Stations

Elev 738 ft 37.98 °N, 122.14 °W | Updated 17 minutes ago

Clear
Clear
67 °F
Feels Like 67 °F
N
6
Wind Variable Wind from NE
Gusts 8.0 mph

Today
High -- | Low -- °F
--% Chance of Precip.
Yesterday
High -- | Low -- °F
Precip. -- in
Pressure 30.13 in
Visibility 10.0 miles
Clouds Clear
Dew Point 42 °F
Humidity 40%
Rainfall in
Snow Depth Not available.
7:06 AM 5:39 PM
New Moon, 0% visible
METAR KCCR 090153Z AUTO 09004KT 10SM CLR 21/04 A3017 RMK AO2 SLP202 T02110044 TSNO
Pressure 30.13 in
Visibility 10.0 miles
Clouds Clear
Dew Point 42 °F
Humidity 40%
Rainfall in
Snow Depth Not available.
7:06 AM 5:39 PM
New Moon, 0% visible
METAR KCCR 090153Z AUTO 09004KT 10SM CLR 21/04 A3017 RMK AO2 SLP202 T02110044 TSNO

10-Day Weather Forecast

Almanac

Astronomy

Feb. 08, 2016 Rise Set
Actual Time
Civil Twilight
Nautical Twilight
Astronomical Twilight
Moon
Length of Visible Light
Length of Day
Tomorrow will be .
, % of the Moon is Illuminated

Today's Extremes

State Highs State Lows

Community

WunderPhotos

Upload Photos

1,891,527 photos uploaded!

WunderBlog® & News

Nearby

Air Quality

  Air Quality AQ Index Pollutant
Not available.

Snow Depth

Station Depth Elevation

Earthquake Activity

City Distance Mag. Time & Date
Minimum magnitude displayed is 2.5.

Coastal Water Temperatures

Place Temperature

Stations

Nearby Weather Stations

Station Location Temp. Windchill Dew Point Humidity Wind Precip. Elev Updated Type
                   

Watches & Warnings

There are currently no watches in effect.